createdAt,value
2022-08-05T00:00:48.428Z,100654.30
2022-08-05T00:03:19.153Z,100657.91
2022-08-05T00:06:05.196Z,100662.38
2022-08-05T00:08:37.316Z,100657.27
2022-08-05T00:11:20.828Z,100659.06
2022-08-05T00:13:57.297Z,100654.64
2022-08-05T00:16:35.379Z,100658.29
2022-08-05T00:19:08.174Z,100656.60
2022-08-05T00:21:36.760Z,100659.30
2022-08-05T00:24:10.311Z,100659.30
2022-08-05T00:26:46.698Z,100662.78
2022-08-05T00:29:22.336Z,100660.28
2022-08-05T00:32:10.193Z,100656.84
2022-08-05T00:34:54.891Z,100653.28
2022-08-05T00:37:51.285Z,100649.73
2022-08-05T00:40:27.115Z,100660.22
2022-08-05T00:42:59.716Z,100649.73
2022-08-05T00:45:43.168Z,100653.28
2022-08-05T00:48:15.422Z,100654.27
2022-08-05T00:50:47.406Z,100653.39
2022-08-05T00:54:01.325Z,100656.90
2022-08-05T00:56:09.899Z,100654.20
2022-08-05T00:58:42.494Z,100648.92
2022-08-05T01:01:15.169Z,100649.84
2022-08-05T01:03:53.710Z,100646.45
2022-08-05T01:06:22.380Z,100650.17
2022-08-05T01:09:01.156Z,100633.72
2022-08-05T01:11:37.340Z,100643.52
2022-08-05T01:14:18.158Z,100640.06
2022-08-05T01:17:05.962Z,100637.52
2022-08-05T01:20:02.088Z,100626.34
2022-08-05T01:22:47.286Z,100639.64
2022-08-05T01:25:53.368Z,100635.31
2022-08-05T01:28:39.495Z,100626.59
2022-08-05T01:31:16.807Z,100630.30
2022-08-05T01:33:53.517Z,100625.98
2022-08-05T01:36:28.697Z,100628.64
2022-08-05T01:39:00.940Z,100632.19
2022-08-05T01:41:35.460Z,100626.17
2022-08-05T01:44:09.718Z,100628.05
2022-08-05T01:46:41.943Z,100627.17
2022-08-05T01:49:23.840Z,100627.17
2022-08-05T01:51:58.228Z,100626.42
2022-08-05T01:54:33.438Z,100628.30
2022-08-05T01:58:10.551Z,100622.19
2022-08-05T01:59:59.594Z,100620.47
2022-08-05T02:02:34.024Z,100625.89
2022-08-05T02:05:11.755Z,100620.66
2022-08-05T02:07:42.979Z,100613.66
2022-08-05T02:10:29.028Z,100611.84
2022-08-05T02:13:04.679Z,100615.23
2022-08-05T02:15:45.542Z,100610.78
2022-08-05T02:18:31.727Z,100609.87
2022-08-05T02:21:14.989Z,100601.91
2022-08-05T02:23:48.387Z,100600.16
2022-08-05T02:26:23.282Z,100604.55
2022-08-05T02:28:58.379Z,100598.49
2022-08-05T02:31:34.783Z,100596.77
2022-08-05T02:34:11.759Z,100597.61
2022-08-05T02:36:43.654Z,100601.12
2022-08-05T02:39:16.272Z,100593.23
2022-08-05T02:42:01.088Z,100597.61
2022-08-05T02:44:32.982Z,100597.61
2022-08-05T02:47:08.998Z,100596.80
2022-08-05T02:49:42.138Z,100591.69
2022-08-05T02:52:29.488Z,100595.23
2022-08-05T02:55:01.735Z,100584.92
2022-08-05T02:58:10.619Z,100586.84
2022-08-05T03:00:25.494Z,100586.90
2022-08-05T03:02:58.802Z,100586.90
2022-08-05T03:06:54.783Z,100576.31
2022-08-05T03:08:27.045Z,100585.08
2022-08-05T03:11:53.199Z,100574.48
2022-08-05T03:13:52.197Z,100576.31
2022-08-05T03:16:33.475Z,100580.79
2022-08-05T03:19:17.087Z,100572.89
2022-08-05T03:21:54.756Z,100571.20
2022-08-05T03:24:30.379Z,100566.97
2022-08-05T03:26:59.854Z,100574.86
2022-08-05T03:29:45.407Z,100567.81
2022-08-05T03:32:19.345Z,100574.73
2022-08-05T03:34:50.987Z,100572.98
2022-08-05T03:37:22.619Z,100572.11
2022-08-05T03:40:01.904Z,100576.53
2022-08-05T03:42:41.769Z,100577.44
2022-08-05T03:45:23.362Z,100574.73
2022-08-05T03:47:56.829Z,100573.83
2022-08-05T03:50:34.027Z,100578.19
2022-08-05T03:55:33.957Z,100574.65
2022-08-05T03:56:11.946Z,100570.27
2022-08-05T03:58:48.732Z,100572.83
2022-08-05T04:01:22.903Z,100571.92
2022-08-05T04:04:05.482Z,100573.58
2022-08-05T04:06:47.378Z,100564.71
2022-08-05T04:09:20.347Z,100563.77
2022-08-05T04:11:56.862Z,100568.81
2022-08-05T04:14:29.770Z,100571.25
2022-08-05T04:17:02.962Z,100569.23
2022-08-05T04:19:41.406Z,100571.58
2022-08-05T04:22:14.622Z,100575.53
2022-08-05T04:24:52.628Z,100575.95
2022-08-05T04:27:33.350Z,100573.78
2022-08-05T04:30:15.658Z,100572.48
2022-08-05T04:32:44.276Z,100572.87
2022-08-05T04:35:17.578Z,100570.55
2022-08-05T04:38:02.260Z,100576.08
2022-08-05T04:40:35.144Z,100557.09
2022-08-05T04:43:07.014Z,100562.73
2022-08-05T04:45:48.832Z,100555.96
2022-08-05T04:48:27.206Z,100561.61
2022-08-05T04:51:03.304Z,100561.86
2022-08-05T04:53:39.117Z,100568.19
2022-08-05T04:56:32.913Z,100560.41
2022-08-05T04:58:57.723Z,100562.23
2022-08-05T05:01:33.710Z,100561.56
2022-08-05T05:04:16.221Z,100564.28
2022-08-05T05:06:49.371Z,100556.39
2022-08-05T05:09:26.400Z,100562.66
2022-08-05T05:12:00.273Z,100563.58
2022-08-05T05:14:32.361Z,100561.97
2022-08-05T05:17:01.355Z,100564.80
2022-08-05T05:19:36.900Z,100564.11
2022-08-05T05:22:24.032Z,100575.61
2022-08-05T05:24:57.842Z,100574.59
2022-08-05T05:27:44.614Z,100577.72
2022-08-05T05:30:29.736Z,100576.39
2022-08-05T05:33:03.766Z,100585.12
2022-08-05T05:35:46.268Z,100579.33
2022-08-05T05:38:26.936Z,100576.44
2022-08-05T05:40:56.550Z,100581.31
2022-08-05T05:43:54.371Z,100585.14
2022-08-05T05:46:17.360Z,100589.08
2022-08-05T05:48:48.168Z,100590.92
2022-08-05T05:51:24.637Z,100585.55
2022-08-05T05:53:58.686Z,100577.55
2022-08-05T05:56:32.602Z,100584.24
2022-08-05T05:59:06.532Z,100568.24
2022-08-05T06:01:38.699Z,100561.16
2022-08-05T06:04:11.852Z,100569.55
2022-08-05T06:06:43.089Z,100571.22
2022-08-05T06:09:17.312Z,100571.50
2022-08-05T06:12:01.354Z,100571.86
2022-08-05T06:14:33.285Z,100571.71
2022-08-05T06:17:21.897Z,100568.16
2022-08-05T06:19:56.831Z,100572.95
2022-08-05T06:22:30.226Z,100570.81
2022-08-05T06:25:24.527Z,100564.18
2022-08-05T06:28:11.645Z,100570.80
2022-08-05T06:30:43.893Z,100564.74
2022-08-05T06:33:12.463Z,100558.74
2022-08-05T06:36:07.749Z,100566.86
2022-08-05T06:38:37.203Z,100559.73
2022-08-05T06:41:07.785Z,100559.61
2022-08-05T06:43:51.494Z,100561.95
2022-08-05T06:46:30.289Z,100557.38
2022-08-05T06:49:01.102Z,100551.59
2022-08-05T06:51:31.434Z,100559.27
2022-08-05T06:54:02.458Z,100558.11
2022-08-05T06:56:34.265Z,100545.31
2022-08-05T06:59:08.533Z,100548.64
2022-08-05T07:01:40.823Z,100547.44
2022-08-05T07:04:13.924Z,100541.89
2022-08-05T07:06:42.971Z,100541.47
2022-08-05T07:09:11.836Z,100552.23
2022-08-05T07:11:44.603Z,100550.81
2022-08-05T07:14:37.078Z,100551.10
2022-08-05T07:17:58.676Z,100546.70
2022-08-05T07:22:47.849Z,100544.67
2022-08-05T07:25:53.829Z,100537.67
2022-08-05T07:28:11.483Z,100534.83
2022-08-05T07:30:40.804Z,100541.91
2022-08-05T07:33:16.427Z,100539.37
2022-08-05T07:36:03.319Z,100540.85
2022-08-05T07:38:43.482Z,100543.78
2022-08-05T07:42:13.302Z,100539.81
2022-08-05T07:44:14.531Z,100534.97
2022-08-05T07:46:49.617Z,100539.73
2022-08-05T07:49:20.007Z,100536.46
2022-08-05T07:51:54.629Z,100526.97
2022-08-05T07:54:31.130Z,100526.47
2022-08-05T07:57:22.640Z,100529.52
2022-08-05T07:59:52.536Z,100528.78
2022-08-05T08:02:26.393Z,100526.23
2022-08-05T08:05:00.074Z,100527.59
2022-08-05T08:07:29.374Z,100529.77
2022-08-05T08:10:09.044Z,100531.96
2022-08-05T08:12:49.432Z,100531.72
2022-08-05T08:15:37.292Z,100532.31
2022-08-05T08:18:13.906Z,100527.18
2022-08-05T08:21:01.885Z,100518.77
2022-08-05T08:24:03.054Z,100519.98
2022-08-05T08:26:29.318Z,100526.88
2022-08-05T08:29:22.255Z,100522.45
2022-08-05T08:31:49.384Z,100523.41
2022-08-05T08:34:18.950Z,100524.87
2022-08-05T08:37:04.705Z,100524.67
2022-08-05T08:39:37.400Z,100525.05
2022-08-05T08:42:34.338Z,100516.11
2022-08-05T08:45:24.392Z,100516.18
2022-08-05T08:48:07.730Z,100528.28
2022-08-05T08:51:22.115Z,100520.34
2022-08-05T08:53:37.095Z,100517.59
2022-08-05T08:56:07.589Z,100516.45
2022-08-05T08:58:43.268Z,100513.83
2022-08-05T09:01:16.637Z,100515.21
2022-08-05T09:03:47.492Z,100518.13
2022-08-05T09:06:21.270Z,100512.30
2022-08-05T09:08:52.939Z,100508.79
2022-08-05T09:11:53.637Z,100511.16
2022-08-05T09:14:57.115Z,100503.67
2022-08-05T09:17:02.081Z,100508.50
2022-08-05T09:19:36.699Z,100506.80
2022-08-05T09:22:31.923Z,100503.64
2022-08-05T09:25:13.869Z,100508.41
2022-08-05T09:28:04.385Z,100496.89
2022-08-05T09:30:35.153Z,100500.63
2022-08-05T09:33:07.958Z,100489.95
2022-08-05T09:35:36.570Z,100497.56
2022-08-05T09:38:16.935Z,100496.72
2022-08-05T09:40:52.742Z,100492.77
2022-08-05T09:43:41.055Z,100489.05
2022-08-05T09:46:27.575Z,100490.18
2022-08-05T09:49:08.178Z,100484.84
2022-08-05T09:51:48.742Z,100472.19
2022-08-05T09:54:31.129Z,100483.38
2022-08-05T09:57:01.239Z,100480.89
2022-08-05T09:59:35.043Z,100470.63
2022-08-05T10:02:08.042Z,100476.30
2022-08-05T10:04:39.512Z,100469.27
2022-08-05T10:07:19.856Z,100476.38
2022-08-05T10:10:02.691Z,100470.74
2022-08-05T10:12:49.674Z,100466.73
2022-08-05T10:15:22.630Z,100464.59
2022-08-05T10:18:11.997Z,100459.20
2022-08-05T10:20:47.724Z,100450.13
2022-08-05T10:23:34.777Z,100449.80
2022-08-05T10:26:13.850Z,100451.16
2022-08-05T10:28:46.385Z,100439.33
2022-08-05T10:33:01.408Z,100440.53
2022-08-05T10:34:08.106Z,100446.52
2022-08-05T10:36:38.248Z,100443.72
2022-08-05T10:39:24.071Z,100437.84
2022-08-05T10:42:02.446Z,100434.34
2022-08-05T10:44:35.331Z,100432.06
2022-08-05T10:47:26.742Z,100429.75
2022-08-05T10:50:33.008Z,100433.59
2022-08-05T10:52:58.804Z,100432.47
2022-08-05T10:55:30.085Z,100433.31
2022-08-05T10:58:09.137Z,100434.91
2022-08-05T11:00:47.234Z,100419.30
2022-08-05T11:03:23.171Z,100420.88
2022-08-05T11:06:15.888Z,100416.88
2022-08-05T11:09:32.167Z,100408.33
2022-08-05T11:12:22.937Z,100401.52
2022-08-05T11:15:19.427Z,100401.61
2022-08-05T11:18:07.342Z,100410.14
2022-08-05T11:20:44.769Z,100407.61
2022-08-05T11:24:04.719Z,100404.70
2022-08-05T11:26:28.151Z,100409.39
2022-08-05T11:29:12.634Z,100396.45
2022-08-05T11:31:54.435Z,100401.88
2022-08-05T11:34:38.861Z,100394.80
2022-08-05T11:38:29.891Z,100398.73
2022-08-05T11:40:03.092Z,100398.08
2022-08-05T11:42:37.809Z,100403.11
2022-08-05T11:45:23.083Z,100391.55
2022-08-05T11:47:58.817Z,100393.59
2022-08-05T11:50:28.436Z,100392.70
2022-08-05T11:53:03.795Z,100397.81
2022-08-05T11:55:36.859Z,100396.25
2022-08-05T11:58:09.499Z,100390.56
2022-08-05T12:00:44.067Z,100393.20
2022-08-05T12:03:28.989Z,100388.82
2022-08-05T12:06:09.707Z,100389.19
2022-08-05T12:08:49.763Z,100382.53
2022-08-05T12:11:21.237Z,100370.39
2022-08-05T12:13:58.753Z,100375.80
2022-08-05T12:16:38.240Z,100378.59
2022-08-05T12:19:10.328Z,100372.32
2022-08-05T12:21:58.782Z,100374.74
2022-08-05T12:24:30.106Z,100370.84
2022-08-05T12:27:01.056Z,100358.01
2022-08-05T12:29:39.278Z,100365.48
2022-08-05T12:32:09.564Z,100359.80
2022-08-05T12:34:39.198Z,100366.91
2022-08-05T12:37:17.516Z,100357.77
2022-08-05T12:39:52.013Z,100349.27
2022-08-05T12:42:29.917Z,100341.02
2022-08-05T12:45:09.527Z,100348.59
2022-08-05T12:47:43.481Z,100334.25
2022-08-05T12:50:30.864Z,100346.69
2022-08-05T12:52:59.764Z,100348.09
2022-08-05T12:55:32.568Z,100348.27
2022-08-05T12:58:48.494Z,100338.44
2022-08-05T13:02:02.436Z,100342.09
2022-08-05T13:03:42.273Z,100335.63
2022-08-05T13:06:17.669Z,100337.61
2022-08-05T13:08:52.464Z,100333.12
2022-08-05T13:11:57.859Z,100332.66
2022-08-05T13:14:19.592Z,100333.98
2022-08-05T13:16:54.649Z,100323.84
2022-08-05T13:19:50.912Z,100321.52
2022-08-05T13:22:28.234Z,100317.31
2022-08-05T13:25:05.571Z,100314.40
2022-08-05T13:27:38.703Z,100317.41
2022-08-05T13:30:35.941Z,100315.83
2022-08-05T13:33:01.326Z,100307.69
2022-08-05T13:35:42.657Z,100306.83
2022-08-05T13:38:28.110Z,100313.65
2022-08-05T13:41:00.983Z,100304.85
2022-08-05T13:43:45.475Z,100307.93
2022-08-05T13:46:30.792Z,100295.49
2022-08-05T13:49:10.214Z,100299.03
2022-08-05T13:51:46.026Z,100288.83
2022-08-05T13:54:16.998Z,100289.19
2022-08-05T13:56:51.203Z,100290.27
2022-08-05T13:59:24.346Z,100286.11
2022-08-05T14:01:57.874Z,100285.99
2022-08-05T14:04:51.965Z,100283.44
2022-08-05T14:07:57.010Z,100278.49
2022-08-05T14:10:13.324Z,100281.31
2022-08-05T14:12:48.701Z,100271.31
2022-08-05T14:16:04.846Z,100276.12
2022-08-05T14:18:14.867Z,100275.33
2022-08-05T14:20:48.766Z,100275.27
2022-08-05T14:23:24.847Z,100271.43
2022-08-05T14:25:58.856Z,100271.65
2022-08-05T14:28:29.378Z,100267.25
2022-08-05T14:30:58.789Z,100266.23
2022-08-05T14:33:27.694Z,100264.63
2022-08-05T14:36:20.583Z,100272.25
2022-08-05T14:38:51.661Z,100267.77
2022-08-05T14:41:20.717Z,100269.84
2022-08-05T14:43:59.694Z,100268.41
2022-08-05T14:46:35.969Z,100264.77
2022-08-05T14:49:08.071Z,100263.63
2022-08-05T14:51:38.599Z,100260.25
2022-08-05T14:54:28.081Z,100264.05
2022-08-05T14:56:59.870Z,100260.27
2022-08-05T14:59:29.138Z,100268.06
2022-08-05T15:01:59.891Z,100268.80
2022-08-05T15:04:29.153Z,100262.89
2022-08-05T15:06:58.544Z,100266.46
2022-08-05T15:09:52.368Z,100267.47
2022-08-05T15:12:16.868Z,100272.38
2022-08-05T15:14:50.228Z,100262.73
2022-08-05T15:17:46.161Z,100263.42
2022-08-05T15:20:15.597Z,100261.05
2022-08-05T15:22:52.168Z,100259.03
2022-08-05T15:25:41.170Z,100260.20
2022-08-05T15:28:14.951Z,100256.63
2022-08-05T15:30:45.594Z,100255.30
2022-08-05T15:33:53.774Z,100244.50
2022-08-05T15:36:16.746Z,100245.48
2022-08-05T15:38:46.966Z,100241.73
2022-08-05T15:41:21.875Z,100240.72
2022-08-05T15:43:55.005Z,100240.89
2022-08-05T15:46:25.014Z,100239.70
2022-08-05T15:48:58.591Z,100243.91
2022-08-05T15:52:04.324Z,100238.97
2022-08-05T15:54:19.420Z,100237.12
2022-08-05T15:56:48.435Z,100231.53
2022-08-05T15:59:22.265Z,100239.94
2022-08-05T16:01:53.334Z,100227.09
2022-08-05T16:04:25.783Z,100227.59
2022-08-05T16:06:55.670Z,100232.78
2022-08-05T16:09:25.108Z,100233.09
2022-08-05T16:22:00.242Z,100229.78
2022-08-05T16:24:41.068Z,100226.41
2022-08-05T16:27:16.435Z,100222.19
2022-08-05T16:29:50.456Z,100220.81
2022-08-05T16:32:28.338Z,100214.90
2022-08-05T16:34:58.716Z,100213.55
2022-08-05T16:38:15.303Z,100212.13
2022-08-05T16:40:26.587Z,100204.70
2022-08-05T16:42:58.067Z,100212.23
2022-08-05T16:46:03.445Z,100213.71
2022-08-05T16:48:25.591Z,100217.05
2022-08-05T16:50:55.054Z,100210.63
2022-08-05T16:54:02.125Z,100209.92
2022-08-05T16:56:12.841Z,100217.61
2022-08-05T16:58:41.394Z,100217.56
2022-08-05T17:01:10.522Z,100213.13
2022-08-05T17:03:39.366Z,100214.86
2022-08-05T17:06:08.974Z,100216.09
2022-08-05T17:08:52.703Z,100218.88
2022-08-05T17:11:25.210Z,100215.39
2022-08-05T17:14:05.691Z,100222.23
2022-08-05T17:16:37.689Z,100213.26
2022-08-05T17:19:09.736Z,100214.56
2022-08-05T17:21:40.147Z,100209.56
2022-08-05T17:24:30.218Z,100215.01
2022-08-05T17:26:59.513Z,100217.73
2022-08-05T17:29:33.136Z,100218.92
2022-08-05T17:32:03.218Z,100220.94
2022-08-05T17:34:34.805Z,100216.02
2022-08-05T17:37:04.582Z,100224.70
2022-08-05T17:39:45.782Z,100223.59
2022-08-05T17:42:23.681Z,100225.14
2022-08-05T17:44:56.176Z,100226.83
2022-08-05T17:47:24.932Z,100222.89
2022-08-05T17:50:03.522Z,100223.45
2022-08-05T17:52:34.646Z,100228.34
2022-08-05T17:55:21.733Z,100229.86
2022-08-05T17:57:50.450Z,100237.14
2022-08-05T18:00:19.245Z,100230.33
2022-08-05T18:02:48.085Z,100232.12
2022-08-05T18:05:17.617Z,100234.72
2022-08-05T18:07:46.403Z,100233.83
2022-08-05T18:10:20.936Z,100237.56
2022-08-05T18:12:50.265Z,100234.13
2022-08-05T18:15:20.128Z,100239.81
2022-08-05T18:18:01.035Z,100231.81
2022-08-05T18:20:34.224Z,100238.20
2022-08-05T18:23:09.444Z,100243.59
2022-08-05T18:25:44.850Z,100245.59
2022-08-05T18:28:17.186Z,100240.28
2022-08-05T18:30:50.774Z,100239.48
2022-08-05T18:33:22.977Z,100239.72
2022-08-05T18:36:03.691Z,100248.87
2022-08-05T18:38:36.045Z,100238.42
2022-08-05T18:41:55.935Z,100242.58
2022-08-05T18:43:55.802Z,100237.00
2022-08-05T18:46:28.959Z,100236.00
2022-08-05T18:49:17.683Z,100232.96
2022-08-05T18:52:08.990Z,100232.09
2022-08-05T18:54:41.395Z,100229.41
2022-08-05T18:57:16.891Z,100236.30
2022-08-05T19:00:03.312Z,100236.28
2022-08-05T19:02:34.327Z,100236.39
2022-08-05T19:06:05.296Z,100242.65
2022-08-05T19:07:55.153Z,100241.61
2022-08-05T19:10:28.243Z,100242.19
2022-08-05T19:12:57.557Z,100237.42
2022-08-05T19:16:00.090Z,100240.69
2022-08-05T19:18:22.011Z,100241.47
2022-08-05T19:20:51.872Z,100233.06
2022-08-05T19:24:03.670Z,100239.70
2022-08-05T19:26:11.177Z,100229.50
2022-08-05T19:28:41.791Z,100234.42
2022-08-05T19:31:13.585Z,100240.16
2022-08-05T19:33:48.313Z,100244.45
2022-08-05T19:36:26.314Z,100241.70
2022-08-05T19:38:58.938Z,100240.57
2022-08-05T19:42:05.783Z,100250.89
2022-08-05T19:44:19.772Z,100244.31
2022-08-05T19:46:50.132Z,100242.72
2022-08-05T19:49:19.110Z,100242.81
2022-08-05T19:52:06.181Z,100241.97
2022-08-05T19:54:36.886Z,100243.05
2022-08-05T19:57:09.660Z,100243.13
2022-08-05T19:59:56.037Z,100241.55
2022-08-05T20:02:31.472Z,100254.11
2022-08-05T20:05:00.352Z,100257.84
2022-08-05T20:07:47.934Z,100256.46
2022-08-05T20:10:19.401Z,100250.05
2022-08-05T20:12:50.246Z,100254.09
2022-08-05T20:15:47.786Z,100249.17
2022-08-05T20:18:32.905Z,100250.45
2022-08-05T20:20:58.202Z,100240.23
2022-08-05T20:23:40.502Z,100236.07
2022-08-05T20:26:18.569Z,100236.39
2022-08-05T20:28:49.712Z,100240.20
2022-08-05T20:31:21.722Z,100234.23
2022-08-05T20:33:57.464Z,100240.82
2022-08-05T20:36:26.042Z,100237.64
2022-08-05T20:38:57.991Z,100246.77
2022-08-05T20:41:43.220Z,100234.73
2022-08-05T20:44:17.098Z,100234.08
2022-08-05T20:46:48.696Z,100241.42
2022-08-05T20:49:24.166Z,100246.81
2022-08-05T20:51:55.065Z,100256.69
2022-08-05T20:54:25.227Z,100255.94
2022-08-05T20:56:53.870Z,100253.47
2022-08-05T20:59:26.673Z,100251.95
2022-08-05T21:01:57.591Z,100257.38
2022-08-05T21:04:27.340Z,100247.70
2022-08-05T21:06:55.980Z,100247.89
2022-08-05T21:09:24.686Z,100248.95
2022-08-05T21:12:09.587Z,100246.70
2022-08-05T21:14:39.863Z,100253.16
2022-08-05T21:17:08.742Z,100248.91
2022-08-05T21:19:46.710Z,100256.12
2022-08-05T21:22:18.701Z,100257.17
2022-08-05T21:24:52.021Z,100259.08
2022-08-05T21:27:25.317Z,100257.44
2022-08-05T21:29:56.750Z,100263.73
2022-08-05T21:32:27.574Z,100260.02
2022-08-05T21:35:08.713Z,100253.84
2022-08-05T21:37:53.096Z,100262.68
2022-08-05T21:40:23.263Z,100259.16
2022-08-05T21:42:53.851Z,100254.78
2022-08-05T21:45:24.482Z,100256.72
2022-08-05T21:47:57.761Z,100260.40
2022-08-05T21:50:26.821Z,100257.09
2022-08-05T21:52:58.856Z,100258.15
2022-08-05T21:56:01.084Z,100258.44
2022-08-05T21:58:30.864Z,100263.17
2022-08-05T22:01:01.448Z,100258.34
2022-08-05T22:03:52.167Z,100266.70
2022-08-05T22:06:22.375Z,100257.32
2022-08-05T22:08:52.712Z,100254.92
2022-08-05T22:11:35.022Z,100255.28
2022-08-05T22:14:34.438Z,100259.17
2022-08-05T22:16:57.038Z,100258.80
2022-08-05T22:20:02.971Z,100261.73
2022-08-05T22:22:16.470Z,100268.38
2022-08-05T22:25:17.786Z,100263.35
2022-08-05T22:28:09.267Z,100261.92
2022-08-05T22:30:44.243Z,100265.80
2022-08-05T22:33:58.465Z,100262.55
2022-08-05T22:36:15.126Z,100252.32
2022-08-05T22:38:47.971Z,100255.25
2022-08-05T22:41:26.504Z,100260.55
2022-08-05T22:44:08.892Z,100258.08
2022-08-05T22:46:39.524Z,100254.66
2022-08-05T22:49:12.038Z,100253.05
2022-08-05T22:52:04.498Z,100247.91
2022-08-05T22:54:35.948Z,100251.78
2022-08-05T22:57:06.673Z,100243.97
2022-08-05T22:59:45.781Z,100251.19
2022-08-05T23:02:29.485Z,100244.17
2022-08-05T23:05:01.412Z,100252.30
2022-08-05T23:07:48.550Z,100261.36
2022-08-05T23:10:19.512Z,100242.30
2022-08-05T23:12:51.367Z,100245.99
2022-08-05T23:15:26.982Z,100243.44
2022-08-05T23:18:01.637Z,100242.67
2022-08-05T23:20:32.580Z,100242.00
2022-08-05T23:23:03.493Z,100248.41
2022-08-05T23:25:53.363Z,100248.58
2022-08-05T23:28:28.610Z,100250.48
2022-08-05T23:31:15.853Z,100248.84
2022-08-05T23:34:04.395Z,100253.30
2022-08-05T23:36:40.261Z,100257.66
2022-08-05T23:39:17.192Z,100262.86
2022-08-05T23:41:54.008Z,100261.09
2022-08-05T23:44:31.399Z,100254.91
2022-08-05T23:47:02.428Z,100262.02
2022-08-05T23:49:45.675Z,100260.31
2022-08-05T23:52:28.701Z,100254.07
2022-08-05T23:55:01.347Z,100253.13
2022-08-05T23:57:30.096Z,100255.69
